createdAt,value
2022-08-17T00:02:27.284Z,4.85
2022-08-17T00:05:36.755Z,5.47
2022-08-17T00:08:51.023Z,5.25
2022-08-17T00:12:35.567Z,5.10
2022-08-17T00:15:17.167Z,5.10
2022-08-17T00:19:01.268Z,5.03
2022-08-17T00:22:32.563Z,5.22
2022-08-17T00:25:16.594Z,4.70
2022-08-17T00:28:19.084Z,4.90
2022-08-17T00:31:23.856Z,4.60
2022-08-17T00:34:25.705Z,5.70
2022-08-17T00:37:31.481Z,6.18
2022-08-17T00:40:44.507Z,5.75
2022-08-17T00:43:57.636Z,5.28
2022-08-17T00:46:59.364Z,5.43
2022-08-17T00:50:03.575Z,4.93
2022-08-17T00:53:05.940Z,5.00
2022-08-17T00:56:12.316Z,5.90
2022-08-17T00:59:19.197Z,5.50
2022-08-17T01:02:22.298Z,5.57
2022-08-17T01:05:31.766Z,5.40
2022-08-17T01:08:35.319Z,5.70
2022-08-17T01:11:46.740Z,4.32
2022-08-17T01:14:50.656Z,4.97
2022-08-17T01:17:53.254Z,4.65
2022-08-17T01:20:58.117Z,4.68
2022-08-17T01:24:01.475Z,4.90
2022-08-17T01:27:10.479Z,4.80
2022-08-17T01:30:56.662Z,4.95
2022-08-17T01:33:37.907Z,5.60
2022-08-17T01:36:43.557Z,5.78
2022-08-17T01:39:52.951Z,4.82
2022-08-17T01:43:01.371Z,5.63
2022-08-17T01:46:05.106Z,6.15
2022-08-17T01:49:11.369Z,5.78
2022-08-17T01:52:14.073Z,5.75
2022-08-17T01:55:18.554Z,5.40
2022-08-17T01:58:21.788Z,5.50
2022-08-17T02:01:27.786Z,5.45
2022-08-17T02:04:29.829Z,5.65
2022-08-17T02:07:31.675Z,6.00
2022-08-17T02:10:52.281Z,5.45
2022-08-17T02:13:55.067Z,5.22
2022-08-17T02:17:05.169Z,5.45
2022-08-17T02:20:09.396Z,5.45
2022-08-17T02:23:13.020Z,5.70
2022-08-17T02:26:25.900Z,5.78
2022-08-17T02:29:28.851Z,5.40
2022-08-17T02:32:30.699Z,4.97
2022-08-17T02:35:32.624Z,5.38
2022-08-17T02:38:36.502Z,5.45
2022-08-17T02:41:39.422Z,5.47
2022-08-17T02:44:42.363Z,5.72
2022-08-17T02:47:47.326Z,5.82
2022-08-17T02:50:51.717Z,5.40
2022-08-17T02:54:39.148Z,6.03
2022-08-17T02:57:18.471Z,5.97
2022-08-17T03:00:25.216Z,5.85
2022-08-17T03:03:27.684Z,6.20
2022-08-17T03:06:29.759Z,6.95
2022-08-17T03:09:31.684Z,6.20
2022-08-17T03:12:35.373Z,6.70
2022-08-17T03:15:40.572Z,5.40
2022-08-17T03:18:46.094Z,6.25
2022-08-17T03:21:55.216Z,5.53
2022-08-17T03:24:57.455Z,5.90
2022-08-17T03:28:00.039Z,6.10
2022-08-17T03:31:03.335Z,5.82
2022-08-17T03:34:05.251Z,5.45
2022-08-17T03:37:07.369Z,5.50
2022-08-17T03:40:10.173Z,5.55
2022-08-17T03:43:12.409Z,5.43
2022-08-17T03:46:35.016Z,5.82
2022-08-17T03:49:55.912Z,5.25
2022-08-17T03:53:16.488Z,6.07
2022-08-17T03:56:37.038Z,5.18
2022-08-17T03:59:39.467Z,5.38
2022-08-17T04:02:43.320Z,5.30
2022-08-17T04:05:48.207Z,5.70
2022-08-17T04:08:49.968Z,5.70
2022-08-17T04:11:52.339Z,5.43
2022-08-17T04:14:55.147Z,5.25
2022-08-17T04:17:58.429Z,4.97
2022-08-17T04:21:00.497Z,5.38
2022-08-17T04:24:03.105Z,5.38
2022-08-17T04:27:05.108Z,5.20
2022-08-17T04:30:07.792Z,5.13
2022-08-17T04:33:14.334Z,4.90
2022-08-17T04:39:18.987Z,4.20
2022-08-17T04:42:20.997Z,4.70
2022-08-17T04:45:22.772Z,5.28
2022-08-17T04:48:36.955Z,5.22
2022-08-17T04:51:54.686Z,5.05
2022-08-17T04:54:58.856Z,4.72
2022-08-17T04:58:00.806Z,5.43
2022-08-17T05:01:03.633Z,5.95
2022-08-17T05:04:32.903Z,5.35
2022-08-17T05:07:31.720Z,5.75
2022-08-17T05:10:37.358Z,5.75
2022-08-17T05:13:50.303Z,5.68
2022-08-17T05:16:52.333Z,5.32
2022-08-17T05:19:54.425Z,4.88
2022-08-17T05:22:58.709Z,4.78
2022-08-17T05:26:00.614Z,5.10
2022-08-17T05:29:04.130Z,5.32
2022-08-17T05:32:38.059Z,4.57
2022-08-17T05:35:35.680Z,4.93
2022-08-17T05:38:38.124Z,5.57
2022-08-17T05:41:40.109Z,5.63
2022-08-17T05:44:41.914Z,5.60
2022-08-17T05:47:44.976Z,5.40
2022-08-17T05:50:54.449Z,5.63
2022-08-17T05:54:08.787Z,4.82
2022-08-17T05:57:53.478Z,5.63
2022-08-17T06:01:21.084Z,5.53
2022-08-17T06:04:41.692Z,4.87
2022-08-17T06:07:49.687Z,5.45
2022-08-17T06:11:37.289Z,5.30
2022-08-17T06:15:01.630Z,5.43
2022-08-17T06:18:06.937Z,5.25
2022-08-17T06:21:13.299Z,5.32
2022-08-17T06:24:43.241Z,4.43
2022-08-17T06:27:53.715Z,4.70
2022-08-17T06:31:01.479Z,5.10
2022-08-17T06:34:10.217Z,5.60
2022-08-17T06:37:31.341Z,5.22
2022-08-17T06:40:57.033Z,5.07
2022-08-17T06:44:49.798Z,4.70
2022-08-17T06:47:42.987Z,3.70
2022-08-17T06:50:50.043Z,4.53
2022-08-17T06:53:59.708Z,4.75
2022-08-17T06:57:16.782Z,4.10
2022-08-17T07:00:24.619Z,5.25
2022-08-17T07:03:45.497Z,4.75
2022-08-17T07:06:51.737Z,4.80
2022-08-17T07:09:57.682Z,4.43
2022-08-17T07:13:10.365Z,4.82
2022-08-17T07:16:19.604Z,4.38
2022-08-17T07:19:23.795Z,4.22
2022-08-17T07:23:07.106Z,4.72
2022-08-17T07:26:09.779Z,5.57
2022-08-17T07:29:17.013Z,4.32
2022-08-17T07:32:40.955Z,4.85
2022-08-17T07:35:44.966Z,5.13
2022-08-17T07:38:58.994Z,5.53
2022-08-17T07:42:05.127Z,4.45
2022-08-17T07:45:28.509Z,4.45
2022-08-17T07:48:36.292Z,5.20
2022-08-17T07:51:41.158Z,4.55
2022-08-17T07:54:43.383Z,5.35
2022-08-17T07:57:55.254Z,4.82
2022-08-17T08:01:13.512Z,4.00
2022-08-17T08:04:43.162Z,4.95
2022-08-17T08:07:48.515Z,4.47
2022-08-17T08:11:10.656Z,4.45
2022-08-17T08:14:34.253Z,4.65
2022-08-17T08:17:47.290Z,4.78
2022-08-17T08:20:54.151Z,4.90
2022-08-17T08:24:26.174Z,4.43
2022-08-17T08:28:08.219Z,5.15
2022-08-17T08:31:26.700Z,4.47
2022-08-17T08:35:02.022Z,4.20
2022-08-17T08:38:09.493Z,4.65
2022-08-17T08:41:19.988Z,4.10
2022-08-17T08:45:04.133Z,4.80
2022-08-17T08:48:46.030Z,4.35
2022-08-17T08:51:56.137Z,4.28
2022-08-17T08:55:26.259Z,5.15
2022-08-17T08:58:50.908Z,4.45
2022-08-17T09:02:20.574Z,4.50
2022-08-17T09:05:30.558Z,4.38
2022-08-17T09:08:55.359Z,4.85
2022-08-17T09:12:25.750Z,4.32
2022-08-17T09:15:32.245Z,4.90
2022-08-17T09:19:03.583Z,4.80
2022-08-17T09:22:21.527Z,4.60
2022-08-17T09:25:29.930Z,4.53
2022-08-17T09:28:37.515Z,4.20
2022-08-17T09:31:49.933Z,4.20
2022-08-17T09:35:00.516Z,4.18
2022-08-17T09:38:02.780Z,3.92
2022-08-17T09:41:48.741Z,4.85
2022-08-17T09:45:00.166Z,4.68
2022-08-17T09:48:08.967Z,4.35
2022-08-17T09:51:21.683Z,3.92
2022-08-17T09:54:40.276Z,3.85
2022-08-17T09:58:11.999Z,4.00
2022-08-17T10:01:31.951Z,4.15
2022-08-17T10:05:07.241Z,4.35
2022-08-17T10:08:24.425Z,4.00
2022-08-17T10:11:58.711Z,4.00
2022-08-17T10:15:42.800Z,3.78
2022-08-17T10:18:47.968Z,3.80
2022-08-17T10:22:14.660Z,3.93
2022-08-17T10:25:55.916Z,2.92
2022-08-17T10:29:06.909Z,3.80
2022-08-17T10:32:14.620Z,3.78
2022-08-17T10:35:34.424Z,3.28
2022-08-17T10:38:50.246Z,3.55
2022-08-17T10:41:56.173Z,3.42
2022-08-17T10:45:36.106Z,2.97
2022-08-17T10:48:39.197Z,2.40
2022-08-17T10:51:42.147Z,3.00
2022-08-17T10:54:48.678Z,2.53
2022-08-17T10:57:51.001Z,2.78
2022-08-17T11:00:57.663Z,2.58
2022-08-17T11:04:21.617Z,3.15
2022-08-17T11:07:32.658Z,2.92
2022-08-17T11:10:55.982Z,3.55
2022-08-17T11:14:30.154Z,3.20
2022-08-17T11:17:50.467Z,2.80
2022-08-17T11:21:40.638Z,2.58
2022-08-17T11:24:48.137Z,2.85
2022-08-17T11:27:54.014Z,2.65
2022-08-17T11:30:59.456Z,2.95
2022-08-17T11:34:05.179Z,3.00
2022-08-17T11:37:29.073Z,2.72
2022-08-17T11:40:34.230Z,2.72
2022-08-17T11:43:44.705Z,2.50
2022-08-17T11:47:18.595Z,3.13
2022-08-17T11:50:39.225Z,2.22
2022-08-17T11:53:41.279Z,2.50
2022-08-17T11:56:49.097Z,2.72
2022-08-17T11:59:54.290Z,2.67
2022-08-17T12:03:26.870Z,2.13
2022-08-17T12:06:51.835Z,1.83
2022-08-17T12:09:54.301Z,2.17
2022-08-17T12:12:56.458Z,2.97
2022-08-17T12:15:59.082Z,4.07
2022-08-17T12:19:02.855Z,3.17
2022-08-17T12:22:26.934Z,3.38
2022-08-17T12:26:12.458Z,2.90
2022-08-17T12:29:18.211Z,3.15
2022-08-17T12:32:40.790Z,2.80
2022-08-17T12:39:12.872Z,1.92
2022-08-17T12:42:35.175Z,2.47
2022-08-17T12:45:42.044Z,2.10
2022-08-17T12:48:55.076Z,2.65
2022-08-17T12:52:15.511Z,1.85
2022-08-17T12:55:23.203Z,2.60
2022-08-17T12:58:34.010Z,2.05
2022-08-17T13:01:42.008Z,2.30
2022-08-17T13:04:44.507Z,2.28
2022-08-17T13:07:47.240Z,2.67
2022-08-17T13:11:02.418Z,2.60
2022-08-17T13:14:11.107Z,3.27
2022-08-17T13:17:14.087Z,2.58
2022-08-17T13:20:16.528Z,3.10
2022-08-17T13:23:20.149Z,2.40
2022-08-17T13:26:29.726Z,2.42
2022-08-17T13:29:31.837Z,3.30
2022-08-17T13:32:36.311Z,2.95
2022-08-17T13:35:39.898Z,3.08
2022-08-17T13:38:52.762Z,2.95
2022-08-17T13:41:56.540Z,2.92
2022-08-17T13:44:59.241Z,2.90
2022-08-17T13:48:16.672Z,3.00
2022-08-17T13:51:42.418Z,2.95
2022-08-17T13:54:51.372Z,3.00
2022-08-17T13:58:07.181Z,2.90
2022-08-17T14:01:28.903Z,2.97
2022-08-17T14:04:32.175Z,3.40
2022-08-17T14:07:37.526Z,3.00
2022-08-17T14:13:41.489Z,2.67
2022-08-17T14:16:44.218Z,2.38
2022-08-17T14:19:46.197Z,3.13
2022-08-17T14:22:54.418Z,2.90
2022-08-17T14:25:56.458Z,3.25
2022-08-17T14:28:58.470Z,3.25
2022-08-17T14:32:15.210Z,3.15
2022-08-17T14:35:17.764Z,3.05
2022-08-17T14:38:20.258Z,2.60
2022-08-17T14:41:23.829Z,2.90
2022-08-17T14:44:25.783Z,2.50
2022-08-17T14:47:27.671Z,2.60
2022-08-17T14:50:29.885Z,2.90
2022-08-17T14:53:33.970Z,2.90
2022-08-17T14:56:38.068Z,3.17
2022-08-17T14:59:40.280Z,2.80
2022-08-17T15:02:46.129Z,3.20
2022-08-17T15:05:48.700Z,3.22
2022-08-17T15:08:51.470Z,3.55
2022-08-17T15:11:54.106Z,3.47
2022-08-17T15:14:57.175Z,3.53
2022-08-17T15:18:00.381Z,2.85
2022-08-17T15:21:05.929Z,3.35
2022-08-17T15:24:09.588Z,3.92
2022-08-17T15:27:11.629Z,3.55
2022-08-17T15:30:15.451Z,3.25
2022-08-17T15:33:21.354Z,3.60
2022-08-17T15:36:23.503Z,3.03
2022-08-17T15:39:25.536Z,3.47
2022-08-17T15:42:29.429Z,3.85
2022-08-17T15:45:33.936Z,3.53
2022-08-17T15:48:42.563Z,3.70
2022-08-17T15:51:44.607Z,3.60
2022-08-17T15:54:51.419Z,4.20
2022-08-17T15:57:53.772Z,5.65
2022-08-17T16:01:14.824Z,4.07
2022-08-17T16:04:26.529Z,4.00
2022-08-17T16:07:32.441Z,4.20
2022-08-17T16:10:35.698Z,3.90
2022-08-17T16:13:39.774Z,4.30
2022-08-17T16:16:42.103Z,3.78
2022-08-17T16:19:44.745Z,4.30
2022-08-17T16:22:47.212Z,4.15
2022-08-17T16:25:53.432Z,3.85
2022-08-17T16:28:57.783Z,4.20
2022-08-17T16:32:09.097Z,4.07
2022-08-17T16:35:12.466Z,4.35
2022-08-17T16:38:14.330Z,4.25
2022-08-17T16:41:36.613Z,4.53
2022-08-17T16:44:38.489Z,5.20
2022-08-17T16:47:46.008Z,4.63
2022-08-17T16:51:03.503Z,4.35
2022-08-17T16:54:07.278Z,3.67
2022-08-17T16:57:15.031Z,3.47
2022-08-17T17:00:18.359Z,3.65
2022-08-17T17:03:23.930Z,3.60
2022-08-17T17:06:40.132Z,3.40
2022-08-17T17:09:43.918Z,3.35
2022-08-17T17:13:01.689Z,3.35
2022-08-17T17:16:09.240Z,3.67
2022-08-17T17:19:11.235Z,3.70
2022-08-17T17:22:30.405Z,3.60
2022-08-17T17:25:49.014Z,3.13
2022-08-17T17:29:23.523Z,3.53
2022-08-17T17:32:38.035Z,3.53
2022-08-17T17:35:57.397Z,4.00
2022-08-17T17:39:05.480Z,4.90
2022-08-17T17:42:20.201Z,3.78
2022-08-17T17:45:26.186Z,4.18
2022-08-17T17:48:29.165Z,3.97
2022-08-17T17:52:10.955Z,3.85
2022-08-17T17:55:35.942Z,3.88
2022-08-17T17:58:50.045Z,3.88
2022-08-17T18:02:07.465Z,3.38
2022-08-17T18:05:21.386Z,3.83
2022-08-17T18:08:45.888Z,4.43
2022-08-17T18:12:08.802Z,4.63
2022-08-17T18:15:41.094Z,4.15
2022-08-17T18:18:47.011Z,3.60
2022-08-17T18:24:59.266Z,3.67
2022-08-17T18:28:02.402Z,3.78
2022-08-17T18:31:17.701Z,4.90
2022-08-17T18:34:43.819Z,4.07
2022-08-17T18:37:53.100Z,4.30
2022-08-17T18:41:21.006Z,4.00
2022-08-17T18:44:31.424Z,3.65
2022-08-17T18:47:34.325Z,4.93
2022-08-17T18:50:41.597Z,4.55
2022-08-17T18:53:44.250Z,4.22
2022-08-17T18:57:12.816Z,4.70
2022-08-17T19:00:26.765Z,3.97
2022-08-17T19:03:29.730Z,4.55
2022-08-17T19:06:34.342Z,3.97
2022-08-17T19:09:40.822Z,3.65
2022-08-17T19:13:12.961Z,4.22
2022-08-17T19:16:39.323Z,4.05
2022-08-17T19:19:58.595Z,4.05
2022-08-17T19:23:36.082Z,4.40
2022-08-17T19:26:53.474Z,4.03
2022-08-17T19:30:07.142Z,4.53
2022-08-17T19:33:11.317Z,3.78
2022-08-17T19:36:36.299Z,4.13
2022-08-17T19:39:41.313Z,3.55
2022-08-17T19:42:52.614Z,3.70
2022-08-17T19:46:18.482Z,6.88
2022-08-17T19:49:45.786Z,3.83
2022-08-17T19:53:04.302Z,4.45
2022-08-17T19:56:35.480Z,4.28
2022-08-17T19:59:51.255Z,4.10
2022-08-17T20:03:06.457Z,4.40
2022-08-17T20:06:14.169Z,4.35
2022-08-17T20:09:24.314Z,4.07
2022-08-17T20:12:35.996Z,3.90
2022-08-17T20:19:04.300Z,5.68
2022-08-17T20:22:11.811Z,4.45
2022-08-17T20:25:30.413Z,3.90
2022-08-17T20:28:35.556Z,3.50
2022-08-17T20:31:49.051Z,4.90
2022-08-17T20:35:04.835Z,4.32
2022-08-17T20:38:08.350Z,4.17
2022-08-17T20:41:17.139Z,3.30
2022-08-17T20:44:32.682Z,4.13
2022-08-17T20:48:01.173Z,4.05
2022-08-17T20:51:29.899Z,3.38
2022-08-17T20:55:03.544Z,3.45
2022-08-17T20:58:16.410Z,4.28
2022-08-17T21:01:36.508Z,4.57
2022-08-17T21:04:50.563Z,4.22
2022-08-17T21:07:56.801Z,4.00
2022-08-17T21:14:26.193Z,3.35
2022-08-17T21:18:06.981Z,4.57
2022-08-17T21:21:17.561Z,3.75
2022-08-17T21:24:31.741Z,4.03
2022-08-17T21:27:56.749Z,4.03
2022-08-17T21:31:06.711Z,4.07
2022-08-17T21:34:26.308Z,3.75
2022-08-17T21:37:35.533Z,4.10
2022-08-17T21:40:37.671Z,3.42
2022-08-17T21:43:48.128Z,4.55
2022-08-17T21:46:52.441Z,4.05
2022-08-17T21:49:55.532Z,4.50
2022-08-17T21:52:58.735Z,5.22
2022-08-17T21:56:00.995Z,5.15
2022-08-17T21:59:06.663Z,4.28
2022-08-17T22:02:17.563Z,4.10
2022-08-17T22:05:31.509Z,3.83
2022-08-17T22:08:35.532Z,4.95
2022-08-17T22:11:57.900Z,4.90
2022-08-17T22:15:01.114Z,4.55
2022-08-17T22:18:06.451Z,4.20
2022-08-17T22:21:09.075Z,3.83
2022-08-17T22:24:23.370Z,4.47
2022-08-17T22:27:52.648Z,4.70
2022-08-17T22:31:05.945Z,5.10
2022-08-17T22:34:14.113Z,3.70
2022-08-17T22:37:29.235Z,3.72
2022-08-17T22:40:33.376Z,3.70
2022-08-17T22:43:38.586Z,4.22
2022-08-17T22:47:02.725Z,4.05
2022-08-17T22:50:13.278Z,4.22
2022-08-17T22:53:37.516Z,4.63
2022-08-17T22:57:18.707Z,3.85
2022-08-17T23:00:33.862Z,4.65
2022-08-17T23:03:53.917Z,4.68
2022-08-17T23:06:56.092Z,4.28
2022-08-17T23:10:00.704Z,5.18
2022-08-17T23:13:03.187Z,4.60
2022-08-17T23:16:05.227Z,4.63
2022-08-17T23:19:08.553Z,4.97
2022-08-17T23:22:11.569Z,5.10
2022-08-17T23:25:17.722Z,4.43
2022-08-17T23:28:22.762Z,4.65
2022-08-17T23:31:25.785Z,4.47
2022-08-17T23:34:30.291Z,5.30
2022-08-17T23:37:32.907Z,3.78
2022-08-17T23:40:34.735Z,4.40
2022-08-17T23:43:39.306Z,4.82
2022-08-17T23:46:41.777Z,4.55
2022-08-17T23:49:44.278Z,4.55
2022-08-17T23:52:47.554Z,4.82
2022-08-17T23:56:09.017Z,4.28
2022-08-17T23:59:13.911Z,5.20
